createdAt,value
2023-04-21T00:05:54.429Z,68.80
2023-04-21T00:09:57.079Z,68.90
2023-04-21T00:14:00.663Z,69.30
2023-04-21T00:18:04.600Z,69.20
2023-04-21T00:26:31.381Z,69.10
2023-04-21T00:30:36.335Z,69.00
2023-04-21T00:39:00.061Z,69.00
2023-04-21T01:00:15.735Z,69.70
2023-04-21T01:04:18.546Z,69.90
2023-04-21T01:08:21.209Z,70.00
2023-04-21T01:12:25.302Z,70.20
2023-04-21T01:16:28.008Z,70.40
2023-04-21T01:46:40.669Z,70.40
2023-04-21T01:50:43.518Z,70.30
2023-04-21T01:54:47.010Z,70.30
2023-04-21T01:58:50.450Z,70.30
2023-04-21T02:02:53.899Z,70.70
2023-04-21T02:06:56.570Z,70.70
2023-04-21T02:11:01.935Z,70.70
2023-04-21T02:15:04.881Z,70.70
2023-04-21T02:19:09.430Z,70.80
2023-04-21T02:23:12.042Z,71.90
2023-04-21T02:27:15.311Z,71.80
2023-04-21T02:31:19.770Z,72.00
2023-04-21T02:35:24.525Z,72.00
2023-04-21T02:39:27.293Z,71.90
2023-04-21T02:43:29.831Z,72.10
2023-04-21T02:47:37.196Z,73.00
2023-04-21T02:51:39.796Z,72.70
2023-04-21T02:55:44.593Z,72.50
2023-04-21T02:59:58.787Z,72.30
2023-04-21T03:04:04.533Z,72.20
2023-04-21T03:12:25.386Z,72.10
2023-04-21T03:16:28.523Z,71.90
2023-04-21T03:20:32.917Z,71.90
2023-04-21T03:24:35.923Z,72.00
2023-04-21T03:28:38.885Z,72.00
2023-04-21T03:32:43.938Z,71.90
2023-04-21T03:36:46.876Z,71.80
2023-04-21T04:06:30.048Z,72.00
2023-04-21T04:10:34.616Z,72.10
2023-04-21T04:14:37.081Z,72.10
2023-04-21T04:18:39.952Z,72.20
2023-04-21T04:22:42.824Z,72.10
2023-04-21T04:26:53.781Z,72.10
2023-04-21T04:48:05.324Z,72.70
2023-04-21T04:52:10.522Z,72.60
2023-04-21T04:56:15.419Z,72.50
2023-04-21T05:00:20.828Z,72.50
2023-04-21T05:08:44.355Z,72.60
2023-04-21T05:12:47.346Z,72.60
2023-04-21T05:16:50.002Z,72.60
2023-04-21T06:04:07.133Z,71.60
2023-04-21T06:08:10.301Z,71.40
2023-04-21T10:39:07.403Z,51.50
2023-04-21T10:43:30.152Z,51.90
2023-04-21T10:47:42.930Z,51.30
2023-04-21T10:52:06.824Z,51.50
2023-04-21T10:56:10.037Z,50.50
2023-04-21T11:00:17.059Z,50.70
2023-04-21T11:04:21.490Z,50.30
2023-04-21T11:08:24.877Z,49.80
2023-04-21T11:12:29.300Z,49.40
2023-04-21T11:16:32.043Z,49.20
2023-04-21T11:20:34.870Z,48.70
2023-04-21T11:24:37.675Z,48.00
2023-04-21T11:28:41.767Z,47.30
2023-04-21T11:32:44.373Z,47.80
2023-04-21T11:36:47.866Z,47.60
2023-04-21T11:40:51.468Z,47.50
2023-04-21T11:44:55.731Z,47.90
2023-04-21T11:49:02.598Z,46.80
2023-04-21T11:53:06.282Z,46.90
2023-04-21T11:57:09.074Z,46.90
2023-04-21T12:01:11.996Z,47.20
2023-04-21T12:05:14.724Z,47.10
2023-04-21T12:09:18.007Z,46.90
2023-04-21T12:13:23.877Z,46.60
2023-04-21T12:17:26.493Z,45.80
2023-04-21T12:21:29.275Z,45.80
2023-04-21T12:25:31.855Z,45.50
2023-04-21T12:29:38.694Z,44.40
2023-04-21T12:33:41.823Z,44.40
2023-04-21T12:37:45.173Z,44.50
2023-04-21T12:41:48.054Z,44.20
2023-04-21T12:45:52.757Z,43.20
2023-04-21T12:49:55.384Z,43.60
2023-04-21T12:53:57.955Z,44.30
2023-04-21T12:58:00.627Z,44.30
2023-04-21T13:02:03.309Z,44.00
2023-04-21T13:06:06.370Z,44.20
2023-04-21T13:10:09.165Z,44.50
2023-04-21T13:14:12.124Z,44.40
2023-04-21T13:18:14.680Z,44.90
2023-04-21T13:22:17.229Z,45.10
2023-04-21T13:26:20.139Z,45.10
2023-04-21T13:30:22.805Z,44.60
2023-04-21T13:34:25.405Z,44.90
2023-04-21T13:38:28.109Z,44.90
2023-04-21T13:42:30.995Z,44.40
2023-04-21T13:46:34.075Z,44.20
2023-04-21T13:50:36.865Z,43.90
2023-04-21T13:54:39.426Z,44.20
2023-04-21T13:58:42.295Z,43.30
2023-04-21T14:02:45.427Z,43.20
2023-04-21T14:06:49.030Z,42.80
2023-04-21T14:11:10.171Z,42.60
2023-04-21T14:15:13.475Z,42.90
2023-04-21T14:19:16.403Z,42.40
2023-04-21T14:23:19.099Z,42.60
2023-04-21T14:27:21.907Z,43.00
2023-04-21T14:31:24.764Z,42.90
2023-04-21T14:35:27.866Z,42.50
2023-04-21T14:39:30.988Z,43.10
2023-04-21T14:43:33.700Z,42.70
2023-04-21T14:47:36.950Z,42.80
2023-04-21T14:51:42.044Z,42.70
2023-04-21T14:55:44.684Z,42.80
2023-04-21T14:59:48.215Z,42.90
2023-04-21T15:03:50.976Z,42.40
2023-04-21T15:07:55.167Z,42.80
2023-04-21T15:11:57.677Z,43.00
2023-04-21T15:16:00.464Z,43.20
2023-04-21T15:20:05.563Z,43.40
2023-04-21T15:24:09.415Z,43.70
2023-04-21T15:28:13.119Z,44.10
2023-04-21T15:32:15.861Z,44.10
2023-04-21T15:36:18.729Z,44.80
2023-04-21T15:40:21.642Z,45.10
2023-04-21T15:44:26.590Z,45.50
2023-04-21T15:48:29.208Z,45.60
2023-04-21T15:52:31.953Z,45.40
2023-04-21T15:56:34.554Z,44.80
2023-04-21T16:00:37.051Z,44.60
2023-04-21T16:04:40.329Z,44.30
2023-04-21T16:08:43.719Z,44.50
2023-04-21T16:12:50.784Z,44.70
2023-04-21T16:16:53.479Z,44.60
2023-04-21T16:20:56.080Z,44.60
2023-04-21T16:25:01.782Z,44.50
2023-04-21T16:29:04.608Z,43.60
2023-04-21T16:33:07.166Z,42.50
2023-04-21T16:37:09.810Z,42.60
2023-04-21T16:41:12.833Z,41.70
2023-04-21T16:45:15.791Z,41.40
2023-04-21T16:49:18.329Z,41.60
2023-04-21T16:53:23.540Z,41.40
2023-04-21T16:57:28.297Z,41.90
2023-04-21T17:01:30.848Z,42.50
2023-04-21T17:05:33.431Z,43.10
2023-04-21T17:09:36.246Z,43.80
2023-04-21T17:13:39.464Z,44.20
2023-04-21T17:17:43.076Z,44.10
2023-04-21T17:21:45.842Z,44.20
2023-04-21T17:25:48.443Z,44.80
2023-04-21T17:29:51.161Z,45.40
2023-04-21T17:33:57.145Z,45.70
2023-04-21T17:37:59.909Z,46.10
2023-04-21T17:42:02.818Z,46.40
2023-04-21T17:46:06.418Z,46.60
2023-04-21T17:50:12.342Z,46.80
2023-04-21T17:54:17.008Z,47.10
2023-04-21T17:58:19.560Z,47.30
2023-04-21T18:02:22.129Z,47.50
2023-04-21T18:06:24.772Z,47.80
2023-04-21T18:10:32.145Z,48.00
2023-04-21T18:14:34.977Z,48.10
2023-04-21T18:18:37.701Z,48.30
2023-04-21T18:22:40.819Z,48.40
2023-04-21T18:26:43.514Z,48.40
2023-04-21T18:30:46.710Z,48.50
2023-04-21T18:34:49.568Z,48.60
2023-04-21T18:38:52.125Z,48.80
2023-04-21T18:42:54.821Z,48.90
2023-04-21T18:46:58.397Z,49.10
2023-04-21T18:51:01.030Z,49.60
2023-04-21T18:55:09.841Z,50.00
2023-04-21T18:59:35.461Z,50.30
2023-04-21T19:03:38.043Z,50.50
2023-04-21T19:07:41.951Z,50.70
2023-04-21T19:11:44.580Z,50.80
2023-04-21T19:15:47.237Z,50.90
2023-04-21T19:19:51.072Z,51.00
2023-04-21T19:23:54.753Z,51.10
2023-04-21T19:27:57.755Z,51.10
2023-04-21T19:32:00.480Z,51.20
2023-04-21T19:36:03.198Z,51.30
2023-04-21T19:40:06.485Z,51.50
2023-04-21T19:44:09.141Z,51.90
2023-04-21T19:48:12.057Z,52.00
2023-04-21T19:52:14.638Z,52.00
2023-04-21T19:56:17.414Z,52.00
2023-04-21T20:00:20.130Z,52.00
2023-04-21T20:04:22.959Z,52.00
2023-04-21T20:08:25.641Z,52.00
2023-04-21T20:12:28.253Z,52.10
2023-04-21T20:16:31.761Z,52.10
2023-04-21T20:20:35.171Z,52.20
2023-04-21T20:24:37.715Z,52.20
2023-04-21T20:28:40.701Z,52.20
2023-04-21T20:32:43.424Z,52.30
2023-04-21T20:36:46.423Z,52.40
2023-04-21T20:40:50.239Z,52.50
2023-04-21T20:44:53.139Z,52.50
2023-04-21T20:48:56.036Z,52.50
2023-04-21T20:52:58.590Z,52.60
2023-04-21T20:57:01.853Z,53.00
2023-04-21T21:01:04.529Z,53.60
2023-04-21T21:05:07.828Z,54.40
2023-04-21T21:09:10.383Z,54.60
2023-04-21T21:13:12.834Z,54.90
2023-04-21T21:17:16.645Z,55.20
2023-04-21T21:21:19.191Z,55.50
2023-04-21T21:25:21.713Z,55.90
2023-04-21T21:29:24.683Z,56.00
2023-04-21T21:33:27.679Z,55.90
2023-04-21T21:37:30.274Z,56.10
2023-04-21T21:41:32.772Z,56.10
2023-04-21T21:45:35.453Z,56.30
2023-04-21T21:49:38.887Z,57.00
2023-04-21T21:53:41.733Z,57.20
2023-04-21T21:57:44.506Z,57.10
2023-04-21T22:01:47.877Z,57.50
2023-04-21T22:05:50.565Z,57.50
2023-04-21T22:09:53.151Z,57.80
2023-04-21T22:13:56.727Z,58.40
2023-04-21T22:18:00.415Z,60.00
2023-04-21T22:22:03.021Z,60.30
2023-04-21T22:26:05.795Z,59.90
2023-04-21T22:30:08.800Z,59.80
2023-04-21T22:34:14.969Z,60.50
2023-04-21T22:38:17.559Z,60.40
2023-04-21T22:42:20.327Z,60.30
2023-04-21T22:46:22.890Z,60.30
2023-04-21T22:50:25.731Z,60.20
2023-04-21T22:54:28.276Z,60.50
2023-04-21T22:58:31.094Z,60.70
2023-04-21T23:02:34.030Z,60.90
2023-04-21T23:06:36.793Z,60.80
2023-04-21T23:10:39.326Z,60.70
2023-04-21T23:14:41.827Z,61.00
2023-04-21T23:18:44.465Z,61.30
2023-04-21T23:22:47.013Z,61.30
2023-04-21T23:26:49.705Z,61.40
2023-04-21T23:30:52.435Z,61.50
2023-04-21T23:34:54.992Z,61.60
2023-04-21T23:38:57.604Z,61.60
2023-04-21T23:43:00.362Z,61.60
2023-04-21T23:47:03.349Z,61.70
2023-04-21T23:51:06.091Z,62.00
2023-04-21T23:55:09.885Z,62.10
2023-04-21T23:59:12.869Z,62.30
